Time,TemperatureF,DewpointF,PressureIn,WindDirection,WindDirectionDegrees,WindSpeedMPH,WindSpeedGustMPH,Humidity,HourlyPrecipIn,Conditions,Clouds,dailyrainin,SoftwareType,DateUTC
2013-07-08 00:02:00,59.0,46.0,-100.00,SE,128,7.0,9.0,61,-99.99,,,-99.99,,2013-07-08 07:02:00,
2013-07-08 00:11:00,59.0,46.0,-100.00,SE,128,7.0,9.0,61,-99.99,,,-99.99,,2013-07-08 07:11:00,
2013-07-08 00:22:00,58.0,44.0,-100.00,North,-999,0.0,0.0,60,-99.99,,,-99.99,,2013-07-08 07:22:00,
2013-07-08 00:34:00,58.0,44.0,-100.00,North,-999,0.0,0.0,60,-99.99,,,-99.99,,2013-07-08 07:34:00,
2013-07-08 00:44:00,57.0,45.0,-100.00,North,-999,0.0,0.0,63,-99.99,,,-99.99,,2013-07-08 07:44:00,
2013-07-08 00:52:00,57.0,45.0,-100.00,North,-999,0.0,0.0,63,-99.99,,,-99.99,,2013-07-08 07:52:00,
2013-07-08 01:11:00,54.0,43.0,-100.00,ESE,119,5.0,8.0,65,-99.99,,,-99.99,,2013-07-08 08:11:00,
2013-07-08 01:22:00,54.0,41.0,-100.00,ESE,104,5.0,7.0,62,-99.99,,,-99.99,,2013-07-08 08:22:00,
2013-07-08 01:32:00,54.0,40.0,-100.00,SE,134,4.0,7.0,59,-99.99,,,-99.99,,2013-07-08 08:32:00,
2013-07-08 01:33:00,54.0,41.0,-100.00,ESE,104,5.0,7.0,62,-99.99,,,-99.99,,2013-07-08 08:33:00,
2013-07-08 01:42:00,53.0,40.0,-100.00,ESE,121,5.0,6.0,62,-99.99,,,-99.99,,2013-07-08 08:42:00,
2013-07-08 01:52:00,53.0,40.0,-100.00,ESE,121,5.0,6.0,62,-99.99,,,-99.99,,2013-07-08 08:52:00,
2013-07-08 02:01:00,54.0,40.0,-100.00,SE,134,4.0,7.0,59,-99.99,,,-99.99,,2013-07-08 09:01:00,
2013-07-08 02:11:00,54.0,40.0,-100.00,SE,134,4.0,7.0,59,-99.99,,,-99.99,,2013-07-08 09:11:00,
2013-07-08 02:21:00,54.0,40.0,-100.00,SE,134,4.0,7.0,59,-99.99,,,-99.99,,2013-07-08 09:21:00,
2013-07-08 02:43:00,53.0,41.0,-100.00,North,-999,-999.0,-999.0,62,-99.99,,,-99.99,,2013-07-08 09:43:00,
2013-07-08 02:53:00,53.0,40.0,-100.00,South,171,3.0,4.0,62,-99.99,,,-99.99,,2013-07-08 09:53:00,
2013-07-08 03:01:00,53.0,40.0,-100.00,South,171,3.0,4.0,62,-99.99,,,-99.99,,2013-07-08 10:01:00,
2013-07-08 03:11:00,53.0,40.0,-100.00,South,171,3.0,4.0,62,-99.99,,,-99.99,,2013-07-08 10:11:00,
2013-07-08 03:34:00,53.0,39.0,-100.00,North,-999,0.0,0.0,59,-99.99,,,-99.99,,2013-07-08 10:34:00,
2013-07-08 03:43:00,53.0,39.0,-100.00,North,-999,0.0,0.0,59,-99.99,,,-99.99,,2013-07-08 10:43:00,
2013-07-08 03:53:00,50.0,38.0,-100.00,North,-999,0.0,0.0,62,-99.99,,,-99.99,,2013-07-08 10:53:00,
2013-07-08 04:02:00,50.0,38.0,-100.00,North,-999,0.0,0.0,62,-99.99,,,-99.99,,2013-07-08 11:02:00,
2013-07-08 04:22:00,52.0,40.0,-100.00,ESE,107,4.0,5.0,64,-99.99,,,-99.99,,2013-07-08 11:22:00,
2013-07-08 04:33:00,52.0,39.0,-100.00,North,359,1.0,5.0,61,-99.99,,,-99.99,,2013-07-08 11:33:00,
2013-07-08 04:43:00,52.0,39.0,-100.00,North,359,1.0,5.0,61,-99.99,,,-99.99,,2013-07-08 11:43:00,
2013-07-08 04:52:00,52.0,40.0,-100.00,North,-999,0.0,0.0,63,-99.99,,,-99.99,,2013-07-08 11:52:00,
2013-07-08 05:01:00,52.0,40.0,-100.00,North,-999,0.0,0.0,63,-99.99,,,-99.99,,2013-07-08 12:01:00,
2013-07-08 05:11:00,51.0,38.0,-100.00,South,191,1.0,5.0,62,-99.99,,,-99.99,,2013-07-08 12:11:00,
2013-07-08 05:22:00,51.0,38.0,-100.00,South,191,1.0,5.0,62,-99.99,,,-99.99,,2013-07-08 12:22:00,
2013-07-08 05:33:00,51.0,38.0,-100.00,SW,215,0.0,2.0,61,-99.99,,,-99.99,,2013-07-08 12:33:00,
2013-07-08 05:43:00,51.0,38.0,-100.00,SW,215,0.0,2.0,61,-99.99,,,-99.99,,2013-07-08 12:43:00,
2013-07-08 06:22:00,50.0,38.0,-100.00,South,174,5.0,9.0,62,-99.99,,,-99.99,,2013-07-08 13:22:00,
2013-07-08 06:53:00,53.0,38.0,-100.00,NNE,24,2.0,5.0,56,-99.99,,,-99.99,,2013-07-08 13:53:00,
2013-07-08 07:01:00,53.0,38.0,-100.00,NNE,24,2.0,5.0,56,-99.99,,,-99.99,,2013-07-08 14:01:00,
2013-07-08 07:12:00,57.0,39.0,-100.00,NW,309,0.0,2.0,50,-99.99,,,-99.99,,2013-07-08 14:12:00,
2013-07-08 07:22:00,57.0,39.0,-100.00,NW,309,0.0,2.0,50,-99.99,,,-99.99,,2013-07-08 14:22:00,
2013-07-08 07:33:00,57.0,39.0,-100.00,NW,309,0.0,2.0,50,-99.99,,,-99.99,,2013-07-08 14:33:00,
2013-07-08 07:43:00,61.0,39.0,-100.00,North,-999,-999.0,-999.0,44,-99.99,,,-99.99,,2013-07-08 14:43:00,
2013-07-08 08:01:00,61.0,39.0,-100.00,South,174,2.0,4.0,44,-99.99,,,-99.99,,2013-07-08 15:01:00,
2013-07-08 08:11:00,61.0,39.0,-100.00,South,174,2.0,4.0,44,-99.99,,,-99.99,,2013-07-08 15:11:00,
2013-07-08 08:33:00,69.0,39.0,-100.00,SSE,157,1.0,3.0,33,-99.99,,,-99.99,,2013-07-08 15:33:00,
2013-07-08 08:43:00,69.0,39.0,-100.00,SSE,157,1.0,3.0,33,-99.99,,,-99.99,,2013-07-08 15:43:00,
2013-07-08 08:53:00,69.0,39.0,-100.00,SSE,157,1.0,3.0,33,-99.99,,,-99.99,,2013-07-08 15:53:00,
2013-07-08 09:01:00,74.0,40.0,-100.00,North,-999,-999.0,-999.0,29,-99.99,,,-99.99,,2013-07-08 16:01:00,
2013-07-08 09:22:00,74.0,40.0,-100.00,SSE,147,6.0,12.0,29,-99.99,,,-99.99,,2013-07-08 16:22:00,
2013-07-08 09:33:00,74.0,40.0,-100.00,SSE,147,6.0,12.0,29,-99.99,,,-99.99,,2013-07-08 16:33:00,
2013-07-08 10:13:00,78.0,35.0,-100.00,South,182,8.0,14.0,21,-99.99,,,-99.99,,2013-07-08 17:13:00,
2013-07-08 10:25:00,78.0,35.0,-100.00,South,182,8.0,14.0,21,-99.99,,,-99.99,,2013-07-08 17:25:00,
2013-07-08 11:01:00,79.0,26.0,-100.00,SW,223,11.0,21.0,14,-99.99,,,-99.99,,2013-07-08 18:01:00,
2013-07-08 16:20:00,87.0,26.0,-100.00,SW,222,15.0,25.0,11,-99.99,,,-99.99,,2013-07-08 23:20:00,
2013-07-08 16:36:00,86.0,25.0,-100.00,SSW,203,12.0,29.0,11,-99.99,,,-99.99,,2013-07-08 23:36:00,
2013-07-08 16:58:00,87.0,26.0,-100.00,North,-999,-999.0,-999.0,11,-99.99,,,-99.99,,2013-07-08 23:58:00,
2013-07-08 17:05:00,87.0,26.0,-100.00,SW,222,15.0,25.0,11,-99.99,,,-99.99,,2013-07-09 00:05:00,
2013-07-08 17:14:00,87.0,26.0,-100.00,SW,222,15.0,25.0,11,-99.99,,,-99.99,,2013-07-09 00:14:00,
2013-07-08 18:03:00,85.0,22.0,-100.00,SW,224,11.0,17.0,10,-99.99,,,-99.99,,2013-07-09 01:03:00,
2013-07-08 18:05:00,85.0,27.0,-100.00,WSW,246,14.0,25.0,12,-99.99,,,-99.99,,2013-07-09 01:05:00,
2013-07-08 18:46:00,85.0,22.0,-100.00,SW,224,11.0,17.0,10,-99.99,,,-99.99,,2013-07-09 01:46:00,
2013-07-08 19:04:00,84.0,16.0,-100.00,SW,222,9.0,16.0,8,-99.99,,,-99.99,,2013-07-09 02:04:00,
2013-07-08 19:16:00,-999.0,-99.9,-100.00,SW,229,14.0,22.0,9,-99.99,,,-99.99,,2013-07-09 02:16:00,
2013-07-08 19:45:00,84.0,16.0,-100.00,SW,222,9.0,16.0,8,-99.99,,,-99.99,,2013-07-09 02:45:00,
2013-07-08 21:02:00,74.0,13.0,-100.00,North,-999,-999.0,-999.0,10,-99.99,,,-99.99,,2013-07-09 04:02:00,
2013-07-08 21:53:00,68.0,13.0,-100.00,North,-999,-999.0,-999.0,12,-99.99,,,-99.99,,2013-07-09 04:53:00,
2013-07-08 22:02:00,68.0,14.0,-100.00,ESE,112,11.0,13.0,12,-99.99,,,-99.99,,2013-07-09 05:02:00,
2013-07-08 22:11:00,68.0,14.0,-100.00,ESE,112,11.0,13.0,12,-99.99,,,-99.99,,2013-07-09 05:11:00,
2013-07-08 22:22:00,67.0,13.0,-100.00,ESE,107,11.0,12.0,12,-99.99,,,-99.99,,2013-07-09 05:22:00,
2013-07-08 22:33:00,67.0,13.0,-100.00,ESE,107,11.0,12.0,12,-99.99,,,-99.99,,2013-07-09 05:33:00,
2013-07-08 23:53:00,66.0,12.0,-100.00,North,-999,-999.0,-999.0,12,-99.99,,,-99.99,,2013-07-09 06:53:00,